Braddyville, Iowa
Current Conditions -  °F | °C
As of 10:15 AM on Monday 22 Dec 2014 (Local Time) from KICL Reporting Station
Haze Haze  
Wind Chill: 36°   Ceiling: 700
Heat Index: 41°   Visibility: 6mi
Dew Point: 41°   Wind: 7mph
Humidity: 100%   Direction: 140°SE
Pressure: 29.56"   Gusts: 14mph
Location:  40.58°N, 95.03°W
Report Text: KICL 221615Z AUTO 14006G12KT 6SM BR OVC007 05/05 A2956 RMK AO2
Loading
Personal Weather Stations






























Interactive Weather Map New forecast layout! Learn more

10-Day Weather Forecast

Advertisements
Track Severe Weather on mobile